Time;durP1;ratioP1;P1;durP2;ratioP2;P2;SDS_P1;SDS_P2;PMS_P1;PMS_P2;Temp;Humidity;BMP_temperature;BMP_pressure;BME280_temperature;BME280_humidity;BME280_pressure;Samples;Min_cycle;Max_cycle;Signal;HPM_P1;HPM_P2
2022/07/31 00:00:03;;;;;;;4.07;2.65;;;;;;;;;;4996583;28;20038;-78
2022/07/31 00:02:29;;;;;;;5.93;2.80;;;;;;;;;;4994550;28;20045;-78
2022/07/31 00:04:54;;;;;;;6.75;3.05;;;;;;;;;;4983563;28;20038;-78
2022/07/31 00:07:19;;;;;;;4.53;3.10;;;;;;;;;;4987087;28;20034;-77
2022/07/31 00:09:44;;;;;;;4.07;2.47;;;;;;;;;;5013502;28;20037;-78
2022/07/31 00:12:10;;;;;;;6.28;2.83;;;;;;;;;;4979360;28;20038;-77
2022/07/31 00:14:35;;;;;;;4.97;3.13;;;;;;;;;;4998312;28;20026;-78
2022/07/31 00:17:01;;;;;;;5.10;3.20;;;;;;;;;;4994210;28;20046;-78
2022/07/31 00:19:26;;;;;;;6.05;3.47;;;;;;;;;;4979684;28;20041;-78
2022/07/31 00:21:52;;;;;;;4.90;2.90;;;;;;;;;;4980503;28;20509;-78
2022/07/31 00:24:17;;;;;;;6.03;3.10;;;;;;;;;;4999655;28;20511;-78
2022/07/31 00:26:42;;;;;;;5.38;3.15;;;;;;;;;;4986023;28;20034;-79
2022/07/31 00:29:09;;;;;;;5.53;3.42;;;;;;;;;;5000703;28;20042;-78
2022/07/31 00:31:35;;;;;;;5.93;3.20;;;;;;;;;;4989584;28;20541;-78
2022/07/31 00:34:00;;;;;;;6.55;3.20;;;;;;;;;;4986580;28;20045;-78
2022/07/31 00:36:26;;;;;;;4.75;3.30;;;;;;;;;;4992089;28;20034;-79
2022/07/31 00:38:51;;;;;;;4.75;3.00;;;;;;;;;;4984967;28;20563;-79
2022/07/31 00:41:17;;;;;;;4.93;2.95;;;;;;;;;;4989695;28;20062;-79
2022/07/31 00:43:42;;;;;;;5.10;3.45;;;;;;;;;;4992130;28;20107;-79
2022/07/31 00:46:07;;;;;;;5.00;3.42;;;;;;;;;;4998015;28;20030;-79
2022/07/31 00:48:33;;;;;;;7.18;3.40;;;;;;;;;;4995692;28;20037;-79
2022/07/31 00:50:58;;;;;;;6.00;3.42;;;;;;;;;;4998527;28;20036;-79
2022/07/31 00:53:24;;;;;;;6.45;3.45;;;;;;;;;;4999536;28;20087;-79
2022/07/31 00:55:50;;;;;;;6.15;4.10;;;;;;;;;;4993021;28;20134;-79
2022/07/31 00:58:15;;;;;;;6.43;3.25;;;;;;;;;;4998279;28;20045;-79
2022/07/31 01:00:40;;;;;;;6.05;3.67;;;;;;;;;;4998590;28;20053;-78
2022/07/31 01:03:06;;;;;;;4.78;3.05;;;;;;;;;;4993720;28;20053;-78
2022/07/31 01:05:31;;;;;;;5.30;3.40;;;;;;;;;;4985542;28;20080;-78
2022/07/31 01:07:56;;;;;;;5.03;3.08;;;;;;;;;;4985377;28;20393;-78
2022/07/31 01:10:34;;;;;;;5.30;3.10;;;;;;;;;;4983381;28;20824;-78
2022/07/31 01:13:04;;;;;;;4.68;3.00;;;;;;;;;;5000362;28;20045;-78
2022/07/31 01:15:30;;;;;;;4.80;3.03;;;;;;;;;;4995404;28;20030;-78
2022/07/31 01:17:55;;;;;;;5.93;3.38;;;;;;;;;;5000123;28;20054;-78
2022/07/31 01:20:22;;;;;;;5.18;3.03;;;;;;;;;;4996592;28;20085;-78
2022/07/31 01:23:29;;;;;;;6.53;3.25;;;;;;;;;;4986620;28;20046;-78
2022/07/31 01:26:24;;;;;;;5.18;3.40;;;;;;;;;;5010901;28;20036;-78
2022/07/31 01:29:04;;;;;;;5.25;3.50;;;;;;;;;;4997420;28;20041;-78
2022/07/31 01:31:35;;;;;;;5.07;3.08;;;;;;;;;;5007233;28;20596;-78
2022/07/31 01:34:08;;;;;;;5.13;3.55;;;;;;;;;;4990008;28;20046;-78
2022/07/31 01:36:36;;;;;;;5.22;3.42;;;;;;;;;;5001126;28;20092;-78
2022/07/31 01:39:02;;;;;;;5.20;3.38;;;;;;;;;;4983712;28;20602;-78
2022/07/31 01:41:31;;;;;;;5.93;3.42;;;;;;;;;;4992076;28;20493;-77
2022/07/31 01:43:57;;;;;;;6.30;3.42;;;;;;;;;;4991300;28;20045;-78
2022/07/31 01:46:24;;;;;;;5.78;3.80;;;;;;;;;;5003843;28;20440;-78
2022/07/31 01:48:51;;;;;;;5.63;3.40;;;;;;;;;;4983973;28;20386;-78
2022/07/31 01:51:17;;;;;;;7.60;3.77;;;;;;;;;;5004677;28;20037;-79
2022/07/31 01:53:44;;;;;;;6.65;3.88;;;;;;;;;;4978845;28;20041;-79
2022/07/31 01:56:10;;;;;;;5.32;3.60;;;;;;;;;;4981639;28;20515;-79
2022/07/31 01:58:37;;;;;;;6.35;3.53;;;;;;;;;;4995402;28;20073;-78
2022/07/31 02:01:04;;;;;;;5.25;3.22;;;;;;;;;;4990130;28;20049;-78
2022/07/31 02:03:31;;;;;;;5.10;3.42;;;;;;;;;;5004442;28;20053;-79
2022/07/31 02:05:59;;;;;;;5.68;3.85;;;;;;;;;;4998787;28;20034;-79
2022/07/31 02:08:25;;;;;;;5.88;3.38;;;;;;;;;;5004077;28;20124;-78
2022/07/31 02:10:51;;;;;;;5.35;3.50;;;;;;;;;;4990883;28;20188;-78
2022/07/31 02:13:18;;;;;;;7.05;4.00;;;;;;;;;;4995973;28;20045;-78
2022/07/31 02:15:44;;;;;;;6.65;3.42;;;;;;;;;;4984481;28;20037;-78
2022/07/31 02:18:11;;;;;;;5.32;3.63;;;;;;;;;;4984694;28;20034;-79
2022/07/31 02:20:38;;;;;;;6.28;3.70;;;;;;;;;;4989446;28;20089;-78
2022/07/31 02:23:03;;;;;;;6.82;3.67;;;;;;;;;;4983519;28;20117;-78
2022/07/31 02:25:30;;;;;;;7.00;3.47;;;;;;;;;;4998055;28;20434;-78
2022/07/31 02:27:57;;;;;;;4.30;3.22;;;;;;;;;;4996330;28;20049;-78
2022/07/31 02:30:25;;;;;;;4.95;3.22;;;;;;;;;;4982110;28;20370;-78
2022/07/31 02:32:50;;;;;;;4.60;3.17;;;;;;;;;;4990278;28;20496;-78
2022/07/31 02:35:16;;;;;;;5.50;3.65;;;;;;;;;;4998992;28;20039;-78
2022/07/31 02:37:42;;;;;;;4.93;3.13;;;;;;;;;;4979808;28;20030;-79
2022/07/31 02:40:10;;;;;;;5.75;3.65;;;;;;;;;;4978620;28;20130;-78
2022/07/31 02:42:36;;;;;;;5.43;3.50;;;;;;;;;;4986627;28;20035;-78
2022/07/31 02:45:01;;;;;;;5.78;3.40;;;;;;;;;;4978508;28;20508;-78
2022/07/31 02:47:28;;;;;;;4.72;3.60;;;;;;;;;;4976872;28;20037;-78
2022/07/31 02:49:54;;;;;;;5.55;3.65;;;;;;;;;;4966996;28;20130;-78
2022/07/31 02:52:20;;;;;;;7.07;3.85;;;;;;;;;;4988350;28;20035;-78
2022/07/31 02:54:46;;;;;;;4.57;3.28;;;;;;;;;;4993481;28;20583;-78
2022/07/31 02:57:11;;;;;;;5.28;3.38;;;;;;;;;;4998842;28;20396;-78
2022/07/31 02:59:37;;;;;;;7.05;4.03;;;;;;;;;;5000330;28;20045;-78
2022/07/31 03:02:03;;;;;;;6.30;4.05;;;;;;;;;;4988797;28;20037;-78
2022/07/31 03:04:28;;;;;;;5.95;3.85;;;;;;;;;;4996937;28;20072;-78
2022/07/31 03:06:54;;;;;;;5.50;3.40;;;;;;;;;;4992624;28;20097;-78
2022/07/31 03:09:19;;;;;;;6.55;3.33;;;;;;;;;;4978435;28;20553;-78
2022/07/31 03:11:45;;;;;;;5.32;3.50;;;;;;;;;;4989732;28;21096;-78
2022/07/31 03:14:11;;;;;;;5.55;3.80;;;;;;;;;;4966892;28;20082;-78
2022/07/31 03:16:37;;;;;;;4.80;3.40;;;;;;;;;;4978091;28;20043;-77
2022/07/31 03:19:03;;;;;;;6.65;3.72;;;;;;;;;;4974040;28;20544;-77
2022/07/31 03:21:29;;;;;;;5.80;3.60;;;;;;;;;;4985085;28;20045;-78
2022/07/31 03:23:55;;;;;;;6.13;3.72;;;;;;;;;;4992533;28;20031;-78
2022/07/31 03:26:21;;;;;;;4.82;3.30;;;;;;;;;;4998695;28;20092;-77
2022/07/31 03:28:46;;;;;;;5.75;3.55;;;;;;;;;;4998929;28;20037;-78
2022/07/31 03:31:14;;;;;;;6.20;3.55;;;;;;;;;;4998404;28;20037;-78
2022/07/31 03:33:41;;;;;;;5.95;3.38;;;;;;;;;;4980905;28;20729;-78
2022/07/31 03:36:09;;;;;;;8.18;3.92;;;;;;;;;;5000590;28;20037;-78
2022/07/31 03:38:35;;;;;;;5.95;3.97;;;;;;;;;;4981213;28;20034;-78
2022/07/31 03:41:00;;;;;;;5.00;3.72;;;;;;;;;;4994003;28;20413;-78
2022/07/31 03:43:27;;;;;;;6.60;3.70;;;;;;;;;;4997881;28;20041;-78
2022/07/31 03:45:53;;;;;;;5.88;3.40;;;;;;;;;;4997330;28;20034;-78
2022/07/31 03:48:19;;;;;;;4.80;3.53;;;;;;;;;;4985852;28;20033;-78
2022/07/31 03:50:45;;;;;;;10.18;3.60;;;;;;;;;;4982327;28;20033;-78
2022/07/31 03:53:10;;;;;;;6.10;3.40;;;;;;;;;;4990414;28;20416;-78
2022/07/31 03:55:37;;;;;;;6.30;4.20;;;;;;;;;;4986602;28;20449;-78
2022/07/31 03:58:03;;;;;;;5.03;3.70;;;;;;;;;;4990005;28;20035;-78
2022/07/31 04:00:29;;;;;;;7.55;3.78;;;;;;;;;;4998518;28;20065;-78
2022/07/31 04:02:55;;;;;;;6.78;3.67;;;;;;;;;;5000074;28;20046;-78
2022/07/31 04:05:22;;;;;;;8.05;3.67;;;;;;;;;;4982461;28;20035;-78
2022/07/31 04:07:47;;;;;;;5.03;3.60;;;;;;;;;;5015881;28;20474;-78
2022/07/31 04:10:12;;;;;;;5.78;3.80;;;;;;;;;;4997686;28;20037;-78
2022/07/31 04:12:38;;;;;;;5.68;3.72;;;;;;;;;;4982944;28;20027;-78
2022/07/31 04:15:04;;;;;;;7.10;4.00;;;;;;;;;;4980515;28;20494;-78
2022/07/31 04:17:29;;;;;;;6.68;3.45;;;;;;;;;;5013773;28;20058;-78
2022/07/31 04:19:54;;;;;;;6.45;3.50;;;;;;;;;;4981773;28;20917;-78
2022/07/31 04:22:20;;;;;;;6.40;3.55;;;;;;;;;;4999414;28;20497;-78
2022/07/31 04:24:45;;;;;;;8.40;4.05;;;;;;;;;;4987810;28;20041;-78
2022/07/31 04:27:10;;;;;;;6.93;4.00;;;;;;;;;;4998434;28;20033;-79
2022/07/31 04:29:36;;;;;;;5.43;3.55;;;;;;;;;;4998243;28;20531;-79
2022/07/31 04:32:02;;;;;;;7.50;3.78;;;;;;;;;;4989496;28;20460;-79
2022/07/31 04:34:28;;;;;;;8.45;3.90;;;;;;;;;;4992168;28;20038;-79
2022/07/31 04:36:53;;;;;;;8.20;3.95;;;;;;;;;;4989551;28;20057;-79
2022/07/31 04:39:18;;;;;;;5.57;3.70;;;;;;;;;;4983967;28;20046;-79
2022/07/31 04:41:44;;;;;;;4.70;3.55;;;;;;;;;;4996804;28;20030;-79
2022/07/31 04:44:09;;;;;;;5.63;3.45;;;;;;;;;;4997001;28;20492;-78
2022/07/31 04:46:35;;;;;;;5.65;3.40;;;;;;;;;;4984561;28;20026;-78
2022/07/31 04:49:01;;;;;;;4.40;3.20;;;;;;;;;;4983162;28;20053;-79
2022/07/31 04:51:26;;;;;;;5.53;3.42;;;;;;;;;;4997724;28;20393;-79
2022/07/31 04:53:52;;;;;;;7.55;3.53;;;;;;;;;;4996691;28;20088;-78
2022/07/31 04:56:34;;;;;;;5.65;3.35;;;;;;;;;;5001837;28;20138;-79
2022/07/31 04:59:06;;;;;;;4.35;3.10;;;;;;;;;;4999977;28;20034;-78
2022/07/31 05:01:32;;;;;;;4.78;3.22;;;;;;;;;;4967609;28;20044;-78
2022/07/31 05:03:58;;;;;;;5.95;3.20;;;;;;;;;;5010770;28;20118;-79
2022/07/31 05:06:34;;;;;;;7.32;2.90;;;;;;;;;;4996018;28;20137;-78
2022/07/31 05:09:00;;;;;;;8.27;2.92;;;;;;;;;;5018711;28;20040;-79
2022/07/31 05:11:25;;;;;;;4.40;2.88;;;;;;;;;;4990149;28;20034;-78
2022/07/31 05:13:56;;;;;;;4.10;2.92;;;;;;;;;;4993917;28;20034;-78
2022/07/31 05:16:22;;;;;;;6.38;3.20;;;;;;;;;;5004552;28;20132;-78
2022/07/31 05:18:48;;;;;;;3.90;2.70;;;;;;;;;;4986235;28;20162;-79
2022/07/31 05:21:14;;;;;;;8.43;3.20;;;;;;;;;;4983209;28;20453;-78
2022/07/31 05:23:41;;;;;;;6.22;3.30;;;;;;;;;;4991560;28;20386;-78
2022/07/31 05:26:07;;;;;;;6.32;3.00;;;;;;;;;;4997621;28;20034;-78
2022/07/31 05:28:33;;;;;;;4.25;2.70;;;;;;;;;;4978689;28;20030;-78
2022/07/31 05:30:59;;;;;;;5.35;3.03;;;;;;;;;;4974145;28;20105;-79
2022/07/31 05:33:24;;;;;;;4.65;3.15;;;;;;;;;;4997451;28;20042;-78
2022/07/31 05:35:50;;;;;;;6.18;3.13;;;;;;;;;;4982816;28;20398;-79
2022/07/31 05:38:15;;;;;;;4.68;3.05;;;;;;;;;;4993353;28;20057;-78
2022/07/31 05:40:41;;;;;;;5.75;3.33;;;;;;;;;;5010014;28;20031;-78
2022/07/31 05:43:06;;;;;;;4.07;3.15;;;;;;;;;;5009517;28;20043;-78
2022/07/31 05:45:31;;;;;;;5.82;3.20;;;;;;;;;;4976149;28;20085;-78
2022/07/31 05:47:57;;;;;;;5.35;2.90;;;;;;;;;;4976188;28;20035;-78
2022/07/31 05:50:22;;;;;;;5.35;3.33;;;;;;;;;;4974401;28;20031;-78
2022/07/31 05:52:51;;;;;;;4.45;2.92;;;;;;;;;;4994793;28;20501;-78
2022/07/31 05:55:16;;;;;;;5.22;3.30;;;;;;;;;;4984732;28;20034;-77
2022/07/31 05:57:41;;;;;;;4.68;3.15;;;;;;;;;;4982521;28;20035;-78
2022/07/31 06:00:07;;;;;;;4.13;2.95;;;;;;;;;;4978312;28;20047;-77
2022/07/31 06:02:33;;;;;;;4.72;2.90;;;;;;;;;;4980194;28;20049;-78
2022/07/31 06:04:59;;;;;;;4.75;3.40;;;;;;;;;;4991330;28;20041;-78
2022/07/31 06:07:24;;;;;;;7.57;3.20;;;;;;;;;;4981215;28;20044;-78
2022/07/31 06:09:49;;;;;;;7.32;3.30;;;;;;;;;;4984684;28;20125;-78
2022/07/31 06:12:15;;;;;;;5.47;3.30;;;;;;;;;;4976613;28;20525;-78
2022/07/31 06:14:40;;;;;;;5.47;2.92;;;;;;;;;;5010107;28;20385;-78
2022/07/31 06:17:06;;;;;;;5.47;3.13;;;;;;;;;;4992598;28;20030;-78
2022/07/31 06:19:32;;;;;;;5.70;2.95;;;;;;;;;;4997552;28;20031;-78
2022/07/31 06:21:57;;;;;;;4.20;2.95;;;;;;;;;;4984966;28;20035;-78
2022/07/31 06:24:24;;;;;;;5.57;2.88;;;;;;;;;;4982492;28;20096;-78
2022/07/31 06:26:50;;;;;;;3.73;2.73;;;;;;;;;;4984172;28;20492;-78
2022/07/31 06:29:15;;;;;;;6.25;3.05;;;;;;;;;;5005049;28;20284;-77
2022/07/31 06:31:41;;;;;;;4.43;2.97;;;;;;;;;;4998375;28;20034;-77
2022/07/31 06:34:06;;;;;;;5.57;2.72;;;;;;;;;;4982089;28;20125;-78
2022/07/31 06:36:32;;;;;;;5.65;3.00;;;;;;;;;;4982767;28;20489;-78
2022/07/31 06:38:57;;;;;;;6.00;2.80;;;;;;;;;;4994514;28;20035;-78
2022/07/31 06:44:06;;;;;;;5.85;2.80;;;;;;;;;;4992344;28;20045;-77
2022/07/31 06:46:32;;;;;;;4.55;2.90;;;;;;;;;;4978302;28;20030;-78
2022/07/31 06:48:57;;;;;;;4.47;2.60;;;;;;;;;;4991053;28;20393;-78
2022/07/31 06:51:23;;;;;;;5.10;2.67;;;;;;;;;;5010471;28;20041;-78
2022/07/31 06:53:49;;;;;;;4.70;2.72;;;;;;;;;;4997541;28;20031;-78
2022/07/31 06:56:17;;;;;;;6.60;2.92;;;;;;;;;;5010931;28;20867;-78
2022/07/31 06:58:43;;;;;;;4.72;3.10;;;;;;;;;;4975491;28;20035;-78
2022/07/31 07:01:08;;;;;;;4.05;2.70;;;;;;;;;;4977884;28;20541;-78
2022/07/31 07:03:33;;;;;;;4.43;2.50;;;;;;;;;;4982086;28;20047;-78
2022/07/31 07:05:59;;;;;;;4.68;2.60;;;;;;;;;;5006716;28;20038;-78
2022/07/31 07:08:24;;;;;;;4.53;2.65;;;;;;;;;;4987862;28;20375;-77
2022/07/31 07:10:50;;;;;;;5.00;2.92;;;;;;;;;;4974682;28;20113;-78
2022/07/31 07:13:15;;;;;;;6.15;2.60;;;;;;;;;;4992754;28;20042;-78
2022/07/31 07:15:40;;;;;;;9.45;2.70;;;;;;;;;;4994121;28;20575;-78
2022/07/31 07:18:06;;;;;;;3.80;2.40;;;;;;;;;;4973280;28;20034;-78
2022/07/31 07:20:31;;;;;;;3.85;2.28;;;;;;;;;;4974536;28;20030;-78
2022/07/31 07:22:57;;;;;;;3.78;2.25;;;;;;;;;;4980102;28;20034;-78
2022/07/31 07:25:22;;;;;;;3.60;2.30;;;;;;;;;;4964086;28;20050;-77
2022/07/31 07:27:48;;;;;;;4.32;2.33;;;;;;;;;;4992212;28;20030;-78
2022/07/31 07:30:13;;;;;;;3.95;2.45;;;;;;;;;;4974791;28;20034;-78
2022/07/31 07:32:38;;;;;;;2.95;1.95;;;;;;;;;;4994721;28;20120;-78
2022/07/31 07:35:05;;;;;;;3.70;2.33;;;;;;;;;;4978805;28;20038;-77
2022/07/31 07:37:31;;;;;;;3.08;1.85;;;;;;;;;;4989263;28;20085;-78
2022/07/31 07:39:57;;;;;;;3.13;1.90;;;;;;;;;;4977133;28;20027;-78
2022/07/31 07:42:23;;;;;;;3.03;1.75;;;;;;;;;;4992038;28;20559;-79
2022/07/31 07:44:48;;;;;;;2.80;1.80;;;;;;;;;;5011247;28;20039;-79
2022/07/31 07:47:14;;;;;;;4.22;1.90;;;;;;;;;;4975321;28;20069;-79
2022/07/31 07:49:39;;;;;;;3.00;1.80;;;;;;;;;;4993626;28;20536;-79
2022/07/31 07:52:05;;;;;;;4.28;2.13;;;;;;;;;;4993047;28;20030;-79
2022/07/31 07:54:33;;;;;;;2.90;1.60;;;;;;;;;;4997429;28;20034;-79
2022/07/31 07:56:58;;;;;;;3.58;1.83;;;;;;;;;;4987103;28;20041;-79
2022/07/31 07:59:24;;;;;;;3.25;1.50;;;;;;;;;;4990844;28;20035;-79
2022/07/31 08:01:52;;;;;;;3.95;1.63;;;;;;;;;;4994392;28;20501;-79
2022/07/31 08:04:17;;;;;;;6.72;2.05;;;;;;;;;;4998197;28;20042;-79
2022/07/31 08:06:42;;;;;;;3.60;1.70;;;;;;;;;;4988291;28;20531;-79
2022/07/31 08:09:08;;;;;;;2.83;1.50;;;;;;;;;;4993614;28;20043;-79
2022/07/31 08:11:36;;;;;;;2.63;1.38;;;;;;;;;;4991714;28;20034;-79
2022/07/31 08:14:04;;;;;;;3.97;1.60;;;;;;;;;;4992463;28;20457;-79
2022/07/31 08:16:31;;;;;;;2.65;1.40;;;;;;;;;;4992476;28;20514;-79
2022/07/31 08:18:56;;;;;;;4.85;2.00;;;;;;;;;;5000509;28;20038;-79
2022/07/31 08:21:22;;;;;;;2.65;1.60;;;;;;;;;;4998888;28;20027;-80
2022/07/31 08:23:48;;;;;;;3.28;1.48;;;;;;;;;;4993440;28;20042;-79
2022/07/31 08:26:13;;;;;;;2.90;1.70;;;;;;;;;;4983823;28;20107;-79
2022/07/31 08:28:39;;;;;;;4.22;1.88;;;;;;;;;;4980501;28;20053;-80
2022/07/31 08:31:08;;;;;;;3.50;1.80;;;;;;;;;;4982308;28;20041;-81
2022/07/31 08:33:34;;;;;;;2.97;1.70;;;;;;;;;;4981849;28;20041;-82
2022/07/31 08:36:03;;;;;;;3.08;1.55;;;;;;;;;;4997577;28;20113;-89
2022/07/31 08:38:31;;;;;;;4.65;1.70;;;;;;;;;;4983797;28;20413;-87
2022/07/31 08:40:56;;;;;;;3.65;1.67;;;;;;;;;;4980706;28;20038;-81
2022/07/31 08:43:22;;;;;;;5.95;1.77;;;;;;;;;;4988956;28;20042;-85
2022/07/31 08:45:48;;;;;;;2.53;1.27;;;;;;;;;;4983375;28;20409;-84
2022/07/31 08:48:15;;;;;;;4.18;2.10;;;;;;;;;;4997131;28;20046;-87
2022/07/31 08:50:43;;;;;;;4.03;1.40;;;;;;;;;;4982437;28;20034;-83
2022/07/31 08:53:10;;;;;;;2.58;1.38;;;;;;;;;;5002269;28;20038;-86
2022/07/31 08:55:36;;;;;;;3.40;1.70;;;;;;;;;;4994294;28;20042;-87
2022/07/31 08:58:01;;;;;;;3.42;1.48;;;;;;;;;;4984003;28;20481;-84
2022/07/31 09:00:36;;;;;;;2.95;1.30;;;;;;;;;;4979326;28;20046;-85
2022/07/31 09:03:04;;;;;;;3.05;1.30;;;;;;;;;;4974066;28;20111;-85
2022/07/31 09:05:33;;;;;;;3.72;1.33;;;;;;;;;;4981882;28;20069;-84
2022/07/31 09:07:59;;;;;;;4.85;1.40;;;;;;;;;;4982456;28;20516;-84
2022/07/31 09:10:29;;;;;;;3.00;1.20;;;;;;;;;;4976614;28;20034;-83
2022/07/31 09:13:02;;;;;;;3.17;1.25;;;;;;;;;;4990315;28;21175;-84
2022/07/31 09:15:33;;;;;;;3.45;1.30;;;;;;;;;;4986147;28;20501;-85
2022/07/31 09:17:58;;;;;;;3.67;1.50;;;;;;;;;;4972259;28;20057;-84
2022/07/31 09:20:26;;;;;;;2.67;1.17;;;;;;;;;;4982620;28;20042;-84
2022/07/31 09:23:03;;;;;;;2.13;1.15;;;;;;;;;;4964963;28;20116;-84
2022/07/31 09:25:29;;;;;;;3.30;1.20;;;;;;;;;;4988059;28;20389;-84
2022/07/31 09:28:02;;;;;;;2.30;1.10;;;;;;;;;;4989380;28;20041;-87
2022/07/31 09:30:28;;;;;;;2.88;1.17;;;;;;;;;;4982073;28;20072;-87
2022/07/31 09:32:53;;;;;;;2.63;1.30;;;;;;;;;;4990880;28;20080;-89
2022/07/31 09:35:18;;;;;;;3.63;1.10;;;;;;;;;;4994126;28;20033;-86
2022/07/31 09:37:47;;;;;;;4.87;1.40;;;;;;;;;;4989235;28;20080;-84
2022/07/31 09:40:12;;;;;;;3.40;1.20;;;;;;;;;;4990482;28;20045;-85
2022/07/31 09:42:44;;;;;;;5.40;1.20;;;;;;;;;;4983698;28;20482;-87
2022/07/31 09:45:21;;;;;;;5.05;1.27;;;;;;;;;;4986597;28;20081;-88
2022/07/31 09:47:46;;;;;;;4.05;1.25;;;;;;;;;;4982600;28;20428;-90
2022/07/31 09:50:12;;;;;;;4.20;1.27;;;;;;;;;;4984206;28;20058;-90
2022/07/31 09:52:37;;;;;;;3.83;1.40;;;;;;;;;;4982305;28;20034;-90
2022/07/31 09:55:09;;;;;;;4.70;1.20;;;;;;;;;;4993873;28;20031;-86
2022/07/31 09:57:36;;;;;;;3.85;1.20;;;;;;;;;;4979518;28;20030;-86
2022/07/31 10:00:04;;;;;;;4.40;1.17;;;;;;;;;;4988442;28;20404;-88
2022/07/31 10:02:39;;;;;;;3.65;1.30;;;;;;;;;;4985463;28;20042;-90
2022/07/31 10:05:05;;;;;;;2.85;1.15;;;;;;;;;;4976673;28;20041;-87
2022/07/31 10:07:35;;;;;;;3.05;1.13;;;;;;;;;;4987898;28;20030;-87
2022/07/31 10:10:01;;;;;;;3.15;1.20;;;;;;;;;;4987309;28;20053;-90
2022/07/31 10:12:27;;;;;;;;;;;;;;;;;;4987961;28;20036;-87
2022/07/31 10:14:55;;;;;;;2.88;1.05;;;;;;;;;;4988741;28;19917;-89
2022/07/31 10:17:26;;;;;;;2.30;1.20;;;;;;;;;;4986930;28;20069;-89
2022/07/31 10:19:57;;;;;;;4.13;1.15;;;;;;;;;;4996043;28;20649;-87
2022/07/31 10:22:23;;;;;;;6.28;1.30;;;;;;;;;;4996269;28;20040;-89
2022/07/31 10:24:51;;;;;;;3.50;1.37;;;;;;;;;;4983754;28;20041;-88
2022/07/31 10:27:18;;;;;;;6.85;1.02;;;;;;;;;;4987288;28;20129;-87
2022/07/31 10:29:43;;;;;;;2.70;1.45;;;;;;;;;;4989296;28;20029;-89
2022/07/31 10:32:08;;;;;;;2.13;0.90;;;;;;;;;;4987780;28;20068;-88
2022/07/31 10:34:34;;;;;;;5.43;1.40;;;;;;;;;;4981617;28;20723;-89
2022/07/31 10:37:21;;;;;;;1.98;1.00;;;;;;;;;;4994206;28;20505;-87
2022/07/31 10:40:12;;;;;;;2.63;1.17;;;;;;;;;;4992747;28;20042;-89
2022/07/31 10:42:51;;;;;;;4.65;1.10;;;;;;;;;;4986092;28;20121;-87
2022/07/31 10:45:17;;;;;;;3.28;1.20;;;;;;;;;;4987657;28;20041;-86
2022/07/31 10:47:53;;;;;;;3.25;1.35;;;;;;;;;;4979869;28;20035;-89
2022/07/31 10:50:19;;;;;;;;;;;;;;;;;;4987532;28;20367;-88
2022/07/31 10:52:44;;;;;;;3.35;1.30;;;;;;;;;;4990968;28;19928;-86
2022/07/31 10:55:28;;;;;;;2.10;1.10;;;;;;;;;;4995908;28;20034;-88
2022/07/31 10:57:54;;;;;;;3.20;1.50;;;;;;;;;;4996589;28;20031;-88
2022/07/31 11:00:21;;;;;;;3.67;1.63;;;;;;;;;;4986691;28;20421;-87
2022/07/31 11:02:47;;;;;;;2.42;1.20;;;;;;;;;;4986832;28;20037;-88
2022/07/31 11:05:21;;;;;;;3.90;1.40;;;;;;;;;;4981912;28;20037;-88
2022/07/31 11:08:06;;;;;;;3.72;1.40;;;;;;;;;;4982012;28;20145;-86
2022/07/31 11:10:35;;;;;;;3.17;1.50;;;;;;;;;;4980395;28;20551;-88
2022/07/31 11:13:06;;;;;;;3.65;1.80;;;;;;;;;;4986688;28;20042;-89
2022/07/31 11:15:32;;;;;;;4.20;1.38;;;;;;;;;;4984070;28;20125;-88
2022/07/31 11:17:57;;;;;;;2.97;1.37;;;;;;;;;;4980100;28;20135;-88
2022/07/31 11:20:26;;;;;;;3.03;1.60;;;;;;;;;;4985912;28;20311;-86
2022/07/31 11:23:16;;;;;;;4.03;1.80;;;;;;;;;;4982179;28;20027;-87
2022/07/31 11:25:43;;;;;;;5.07;1.83;;;;;;;;;;4987259;28;20041;-88
2022/07/31 11:28:23;;;;;;;3.00;1.90;;;;;;;;;;5009204;28;20042;-88
2022/07/31 11:31:00;;;;;;;4.53;1.90;;;;;;;;;;4985932;28;20609;-87
2022/07/31 11:33:40;;;;;;;2.85;1.30;;;;;;;;;;4994944;28;20042;-88
2022/07/31 11:36:20;;;;;;;3.67;1.70;;;;;;;;;;4985424;28;20065;-88
2022/07/31 11:38:51;;;;;;;3.42;1.58;;;;;;;;;;4994473;28;20096;-88
2022/07/31 11:41:17;;;;;;;3.70;2.28;;;;;;;;;;4992260;28;20030;-86
2022/07/31 11:43:44;;;;;;;2.63;1.60;;;;;;;;;;4987108;28;20034;-87
2022/07/31 11:46:10;;;;;;;3.22;1.55;;;;;;;;;;4985975;28;20497;-88
2022/07/31 11:48:38;;;;;;;5.32;2.00;;;;;;;;;;4979205;28;20061;-89
2022/07/31 11:51:04;;;;;;;4.22;1.60;;;;;;;;;;4997143;28;20026;-88
2022/07/31 11:53:29;;;;;;;2.97;1.67;;;;;;;;;;4992900;28;20542;-87
2022/07/31 11:55:59;;;;;;;3.25;1.67;;;;;;;;;;4982086;28;20485;-88
2022/07/31 11:58:27;;;;;;;3.67;1.63;;;;;;;;;;4984613;28;20033;-88
2022/07/31 12:01:00;;;;;;;3.58;1.95;;;;;;;;;;4997347;28;20054;-89
2022/07/31 12:03:36;;;;;;;3.10;1.77;;;;;;;;;;4995547;28;20041;-87
2022/07/31 12:06:03;;;;;;;3.05;2.08;;;;;;;;;;4993012;28;20030;-87
2022/07/31 12:08:29;;;;;;;3.83;1.98;;;;;;;;;;4985841;28;20046;-86
2022/07/31 12:10:55;;;;;;;3.05;1.77;;;;;;;;;;4981554;28;20436;-79
2022/07/31 12:13:22;;;;;;;5.13;1.85;;;;;;;;;;4988717;28;20125;-79
2022/07/31 12:16:06;;;;;;;3.67;2.10;;;;;;;;;;4994394;28;20034;-79
2022/07/31 12:18:43;;;;;;;4.32;1.67;;;;;;;;;;4993905;28;20040;-79
2022/07/31 12:21:09;;;;;;;5.05;1.90;;;;;;;;;;4997446;28;20597;-79
2022/07/31 12:24:00;;;;;;;4.32;2.00;;;;;;;;;;4970987;28;20114;-80
2022/07/31 12:26:27;;;;;;;5.00;1.88;;;;;;;;;;4975090;28;20030;-80
2022/07/31 12:29:11;;;;;;;5.10;1.77;;;;;;;;;;4992613;28;20038;-80
2022/07/31 12:31:46;;;;;;;3.67;1.90;;;;;;;;;;4995947;28;20038;-80
2022/07/31 12:34:33;;;;;;;3.45;1.73;;;;;;;;;;5007608;28;20076;-80
2022/07/31 12:37:06;;;;;;;5.72;1.90;;;;;;;;;;5002763;28;20512;-79
2022/07/31 12:39:35;;;;;;;3.13;1.70;;;;;;;;;;5006056;28;20056;-80
2022/07/31 12:42:01;;;;;;;4.07;1.70;;;;;;;;;;4981541;28;20541;-86
2022/07/31 12:44:29;;;;;;;3.97;1.90;;;;;;;;;;4985447;28;20034;-86
2022/07/31 12:46:55;;;;;;;3.10;1.77;;;;;;;;;;4968497;28;20401;-86
2022/07/31 12:49:23;;;;;;;5.10;1.80;;;;;;;;;;4987395;28;20034;-86
2022/07/31 12:51:48;;;;;;;3.50;1.42;;;;;;;;;;4977976;28;20050;-86
2022/07/31 12:54:15;;;;;;;3.30;1.70;;;;;;;;;;4975636;28;20153;-85
2022/07/31 12:56:41;;;;;;;4.22;1.75;;;;;;;;;;4987320;28;20121;-86
2022/07/31 12:59:07;;;;;;;3.38;1.55;;;;;;;;;;4971399;28;20047;-86
2022/07/31 13:01:33;;;;;;;4.18;1.73;;;;;;;;;;4974400;28;20458;-87
2022/07/31 13:03:59;;;;;;;4.45;1.77;;;;;;;;;;4982590;28;20128;-86
2022/07/31 13:06:28;;;;;;;4.07;1.40;;;;;;;;;;4996377;28;20034;-86
2022/07/31 13:08:54;;;;;;;3.20;1.45;;;;;;;;;;5001176;28;20093;-78
2022/07/31 13:11:20;;;;;;;3.15;1.45;;;;;;;;;;4989646;28;20042;-78
2022/07/31 13:13:46;;;;;;;3.63;1.48;;;;;;;;;;4996778;28;20037;-78
2022/07/31 13:16:11;;;;;;;7.63;1.98;;;;;;;;;;4982289;28;20034;-79
2022/07/31 13:18:37;;;;;;;3.33;1.58;;;;;;;;;;4996221;28;20049;-78
2022/07/31 13:21:03;;;;;;;3.33;1.60;;;;;;;;;;4997824;28;20445;-78
2022/07/31 13:23:29;;;;;;;2.92;1.40;;;;;;;;;;4990294;28;20141;-78
2022/07/31 13:25:55;;;;;;;3.22;1.65;;;;;;;;;;4996464;28;20141;-79
2022/07/31 13:28:21;;;;;;;2.80;1.40;;;;;;;;;;4983290;28;20034;-79
2022/07/31 13:30:47;;;;;;;3.40;1.50;;;;;;;;;;4988803;28;20045;-79
2022/07/31 13:33:13;;;;;;;3.38;1.58;;;;;;;;;;4998580;28;20054;-79
2022/07/31 13:35:40;;;;;;;3.10;1.50;;;;;;;;;;4998116;28;20034;-78
2022/07/31 13:38:05;;;;;;;4.05;1.40;;;;;;;;;;4982690;28;20469;-81
2022/07/31 13:43:14;;;;;;;2.92;1.40;;;;;;;;;;5001231;28;20139;-80
2022/07/31 13:45:39;;;;;;;2.60;1.30;;;;;;;;;;4992687;28;20059;-80
2022/07/31 13:48:05;;;;;;;3.90;1.40;;;;;;;;;;5003229;28;20041;-80
2022/07/31 13:50:31;;;;;;;3.53;1.35;;;;;;;;;;4987338;28;20078;-81
2022/07/31 13:52:59;;;;;;;4.57;1.83;;;;;;;;;;4997931;28;20038;-82
2022/07/31 13:55:25;;;;;;;3.30;1.50;;;;;;;;;;4983423;28;20042;-82
2022/07/31 13:57:51;;;;;;;3.30;1.45;;;;;;;;;;4990255;28;20054;-81
2022/07/31 14:00:16;;;;;;;4.07;1.40;;;;;;;;;;4997819;28;20045;-81
2022/07/31 14:02:45;;;;;;;4.30;1.25;;;;;;;;;;4989930;28;20042;-81
2022/07/31 14:05:13;;;;;;;4.22;1.48;;;;;;;;;;4987518;28;20050;-80
2022/07/31 14:07:38;;;;;;;4.03;1.55;;;;;;;;;;4993279;28;20069;-81
2022/07/31 14:10:05;;;;;;;3.30;1.35;;;;;;;;;;4974067;28;20502;-80
2022/07/31 14:12:30;;;;;;;6.05;1.63;;;;;;;;;;4982061;28;20097;-81
2022/07/31 14:14:55;;;;;;;3.22;1.38;;;;;;;;;;5003066;28;20434;-80
2022/07/31 14:17:24;;;;;;;2.80;1.40;;;;;;;;;;4986092;28;20081;-79
2022/07/31 14:19:49;;;;;;;3.97;1.92;;;;;;;;;;4970783;28;20160;-79
2022/07/31 14:22:15;;;;;;;3.15;1.30;;;;;;;;;;4988676;28;20557;-79
2022/07/31 14:24:41;;;;;;;3.25;1.30;;;;;;;;;;4992422;28;20035;-80
2022/07/31 14:27:06;;;;;;;3.53;1.20;;;;;;;;;;4994121;28;20058;-80
2022/07/31 14:29:32;;;;;;;4.30;1.40;;;;;;;;;;4992353;28;20109;-80
2022/07/31 14:31:57;;;;;;;2.92;1.30;;;;;;;;;;4979158;28;20034;-79
2022/07/31 14:34:23;;;;;;;4.05;1.20;;;;;;;;;;4986875;28;20121;-79
2022/07/31 14:36:48;;;;;;;2.17;1.15;;;;;;;;;;4973243;28;20099;-79
2022/07/31 14:39:22;;;;;;;2.35;1.00;;;;;;;;;;4975264;28;20177;-86
2022/07/31 14:41:53;;;;;;;3.70;1.13;;;;;;;;;;4971839;28;20065;-86
2022/07/31 14:44:25;;;;;;;3.72;1.17;;;;;;;;;;5006870;28;20042;-86
2022/07/31 14:46:51;;;;;;;2.60;1.10;;;;;;;;;;4978260;28;20040;-89
2022/07/31 14:49:16;;;;;;;3.33;1.20;;;;;;;;;;4975270;28;22240;-89